Wetterstation Vordersexau
Wetterdaten: Woche 16.01.17 - 22.01.17 (KW3)
Datum Zeit Temp. A. Feuchte A. Luftdruck Regen Wind Richtung Taupunkt Windchill Windben
16.01.2017 00:00 -4,7 C 87 % 1019,6 hPa 0,0 l/m 0,0 km/h W -6,5 C -4,7 C 0,0 km/h
16.01.2017 01:00 -5,3 C 87 % 1019,3 hPa 0,0 l/m 0,0 km/h W -7,1 C -5,3 C 0,0 km/h
16.01.2017 02:00 -4,5 C 87 % 1018,9 hPa 0,0 l/m 0,0 km/h W -6,3 C -4,5 C 0,0 km/h
16.01.2017 03:00 -4,4 C 87 % 1019,2 hPa 0,0 l/m 0,0 km/h W -6,2 C -4,4 C 0,0 km/h
16.01.2017 04:00 -3,8 C 86 % 1018,9 hPa 0,0 l/m 0,0 km/h W -5,8 C -3,8 C 0,0 km/h
16.01.2017 05:00 -3,7 C 86 % 1019,3 hPa 0,0 l/m 0,0 km/h W -5,7 C -3,7 C 0,0 km/h
16.01.2017 06:00 -5,3 C 87 % 1019,3 hPa 0,0 l/m 0,0 km/h W -7,1 C -5,3 C 0,0 km/h
16.01.2017 07:00 -4,4 C 86 % 1019,5 hPa 0,0 l/m 0,0 km/h W -6,4 C -4,4 C 0,0 km/h
16.01.2017 08:00 -5,7 C 87 % 1020,1 hPa 0,0 l/m 0,0 km/h W -7,5 C -5,7 C 0,0 km/h
16.01.2017 09:00 -4,9 C 85 % 1020,4 hPa 0,0 l/m 0,0 km/h W -7,0 C -4,9 C 0,0 km/h
16.01.2017 10:00 -4,9 C 87 % 1020,7 hPa 0,0 l/m 0,0 km/h W -6,7 C -4,9 C 0,0 km/h
16.01.2017 11:00 4,9 C 86 % 1020,9 hPa 0,0 l/m 0,0 km/h W 2,8 C 4,9 C 0,0 km/h
16.01.2017 12:00 8,9 C 70 % 1020,7 hPa 0,0 l/m 0,0 km/h N 3,7 C 8,9 C 0,0 km/h
16.01.2017 13:00 6,8 C 59 % 1020,6 hPa 1,0 l/m 0,0 km/h N-NO -0,6 C 6,8 C 0,0 km/h
16.01.2017 14:00 3,9 C 62 % 1020,5 hPa 0,0 l/m 0,0 km/h N -2,7 C 3,9 C 0,0 km/h
16.01.2017 15:00 3,6 C 66 % 1020,8 hPa 0,5 l/m 0,0 km/h N -2,1 C 3,6 C 0,0 km/h
16.01.2017 16:00 0,2 C 74 % 1021,0 hPa 0,0 l/m 20,1 km/h N-NO -3,9 C -9,4 C 11,2 km/h
16.01.2017 17:00 -1,1 C 78 % 1021,3 hPa 0,0 l/m 0,0 km/h N -4,4 C -1,1 C 0,0 km/h
16.01.2017 18:00 -1,6 C 81 % 1021,9 hPa 0,0 l/m 0,0 km/h N-NO -4,4 C -1,6 C 0,0 km/h
16.01.2017 19:00 -2,7 C 81 % 1022,2 hPa 0,0 l/m 0,0 km/h N -5,5 C -2,7 C 0,0 km/h
16.01.2017 20:00 -2,2 C 81 % 1023,0 hPa 0,0 l/m 0,0 km/h N-NO -5,0 C -2,2 C 0,0 km/h
16.01.2017 21:00 -2,4 C 79 % 1023,4 hPa 0,0 l/m 9,7 km/h N -5,5 C -5,8 C 5,4 km/h
16.01.2017 22:00 -3,1 C 80 % 1023,9 hPa 0,0 l/m 0,0 km/h N -6,0 C -3,1 C 0,0 km/h
16.01.2017 23:00 -4,8 C 82 % 1024,1 hPa 0,0 l/m 0,0 km/h N-NO -7,4 C -4,8 C 0,0 km/h
17.01.2017 00:00 -4,6 C 83 % 1024,1 hPa 0,0 l/m 1,3 km/h N-NO -7,0 C -4,6 C 0,7 km/h
17.01.2017 01:00 -4,2 C 83 % 1024,6 hPa 0,0 l/m 0,0 km/h O-SO -6,6 C -4,2 C 0,0 km/h
17.01.2017 02:00 -6,7 C 83 % 1024,6 hPa 0,0 l/m 0,0 km/h O-SO -9,1 C -6,7 C 0,0 km/h
17.01.2017 03:00 -8,9 C 84 % 1024,8 hPa 0,0 l/m 0,0 km/h N-NO -11,1 C -8,9 C 0,0 km/h
17.01.2017 04:00 -6,1 C 86 % 1024,9 hPa 0,0 l/m 0,0 km/h N -8,0 C -6,1 C 0,0 km/h
17.01.2017 05:00 -6,9 C 86 % 1025,1 hPa 0,0 l/m 0,0 km/h O-SO -8,8 C -6,9 C 0,0 km/h
17.01.2017 06:00 -7,1 C 86 % 1025,7 hPa 0,0 l/m 0,0 km/h SO -9,0 C -7,1 C 0,0 km/h
17.01.2017 07:00 -8,4 C 86 % 1025,9 hPa 0,0 l/m 0,0 km/h SO -10,3 C -8,4 C 0,0 km/h
17.01.2017 08:00 -8,1 C 86 % 1026,5 hPa 0,0 l/m 0,0 km/h N -10,0 C -8,1 C 0,0 km/h
17.01.2017 09:00 -3,6 C 87 % 1027,2 hPa 0,0 l/m 0,0 km/h N -5,4 C -3,6 C 0,0 km/h
17.01.2017 10:00 -3,7 C 79 % 1027,7 hPa 0,0 l/m 6,5 km/h N-NO -6,8 C -3,8 C 3,6 km/h
17.01.2017 11:00 0,9 C 73 % 1028,0 hPa 0,0 l/m 0,0 km/h NO -3,4 C 0,9 C 0,0 km/h
17.01.2017 12:00 3,9 C 61 % 1027,5 hPa 0,0 l/m 0,0 km/h N-NO -2,9 C 3,9 C 0,0 km/h
17.01.2017 13:00 3,0 C 56 % 1027,2 hPa 0,0 l/m 0,0 km/h NO -4,9 C 3,0 C 0,0 km/h
17.01.2017 14:00 4,0 C 56 % 1026,9 hPa 0,0 l/m 0,0 km/h O-NO -4,0 C 4,0 C 0,0 km/h
17.01.2017 15:00 5,1 C 52 % 1026,7 hPa 0,5 l/m 0,0 km/h N -3,9 C 5,1 C 0,0 km/h
17.01.2017 16:00 -1,0 C 63 % 1026,8 hPa 0,0 l/m 0,0 km/h N -7,1 C -1,0 C 0,0 km/h
17.01.2017 17:00 -2,2 C 70 % 1027,1 hPa 0,0 l/m 0,0 km/h O-NO -6,9 C -2,2 C 0,0 km/h
17.01.2017 18:00 -2,9 C 72 % 1027,2 hPa 0,0 l/m 0,0 km/h NO -7,2 C -2,9 C 0,0 km/h
17.01.2017 19:00 -3,3 C 73 % 1027,5 hPa 0,0 l/m 0,0 km/h N-NO -7,4 C -3,3 C 0,0 km/h
17.01.2017 20:00 -3,1 C 74 % 1027,5 hPa 0,0 l/m 0,0 km/h N -7,1 C -3,1 C 0,0 km/h
17.01.2017 21:00 -3,2 C 74 % 1027,6 hPa 0,0 l/m 9,1 km/h NO -7,2 C -6,1 C 5,0 km/h
17.01.2017 22:00 -3,2 C 72 % 1027,9 hPa 0,0 l/m 0,0 km/h N-NO -7,5 C -3,2 C 0,0 km/h
17.01.2017 23:00 -3,7 C 73 % 1027,6 hPa 0,0 l/m 0,0 km/h N-NO -7,8 C -3,7 C 0,0 km/h
18.01.2017 00:00 -4,1 C 75 % 1027,6 hPa 0,0 l/m 0,0 km/h N-NO -7,9 C -4,1 C 0,0 km/h
18.01.2017 01:00 -4,1 C 75 % 1027,7 hPa 0,0 l/m 0,0 km/h N-NO -7,9 C -4,1 C 0,0 km/h
18.01.2017 02:00 -4,4 C 75 % 1027,6 hPa 0,0 l/m 0,0 km/h N-NO -8,1 C -4,4 C 0,0 km/h
18.01.2017 03:00 -4,7 C 75 % 1027,5 hPa 0,0 l/m 1,9 km/h N -8,4 C -4,7 C 1,1 km/h
18.01.2017 04:00 -4,7 C 75 % 1027,5 hPa 0,0 l/m 0,0 km/h N-NO -8,4 C -4,7 C 0,0 km/h
18.01.2017 05:00 -4,4 C 74 % 1027,4 hPa 0,0 l/m 0,0 km/h N-NO -8,3 C -4,4 C 0,0 km/h
18.01.2017 06:00 -5,1 C 75 % 1027,2 hPa 0,0 l/m 0,0 km/h N-NO -8,8 C -5,1 C 0,0 km/h
18.01.2017 07:00 -4,9 C 75 % 1027,5 hPa 0,0 l/m 2,6 km/h O-SO -8,6 C -4,9 C 1,4 km/h
18.01.2017 08:00 -6,9 C 75 % 1028,2 hPa 0,0 l/m 0,0 km/h W -10,6 C -6,9 C 0,0 km/h
18.01.2017 09:00 -6,8 C 78 % 1028,3 hPa 0,0 l/m 0,0 km/h O-SO -10,0 C -6,8 C 0,0 km/h
18.01.2017 10:00 2,5 C 64 % 1028,4 hPa 0,0 l/m 0,0 km/h SW -3,6 C 2,5 C 0,0 km/h
18.01.2017 11:00 5,6 C 54 % 1028,8 hPa 0,0 l/m 0,0 km/h O-NO -3,0 C 5,6 C 0,0 km/h
18.01.2017 12:00 5,4 C 50 % 1028,7 hPa 0,0 l/m 0,0 km/h NO -4,2 C 5,4 C 0,0 km/h
18.01.2017 13:00 5,4 C 49 % 1028,1 hPa 0,0 l/m 0,0 km/h N -4,4 C 5,4 C 0,0 km/h
18.01.2017 14:00 4,9 C 48 % 1027,8 hPa 0,0 l/m 0,0 km/h N -5,2 C 4,9 C 0,0 km/h
18.01.2017 15:00 5,5 C 46 % 1027,8 hPa 0,0 l/m 0,0 km/h N-NO -5,2 C 5,5 C 0,0 km/h
18.01.2017 16:00 4,6 C 47 % 1028,1 hPa 0,5 l/m 0,0 km/h N-NO -5,7 C 4,6 C 0,0 km/h
18.01.2017 17:00 -1,5 C 58 % 1028,0 hPa 0,0 l/m 0,0 km/h N-NO -8,7 C -1,5 C 0,0 km/h
18.01.2017 18:00 -3,9 C 66 % 1028,4 hPa 0,0 l/m 6,5 km/h N-NO -9,3 C -4,0 C 3,6 km/h
18.01.2017 19:00 -5,6 C 68 % 1028,6 hPa 0,0 l/m 0,0 km/h O-NO -10,5 C -5,6 C 0,0 km/h
18.01.2017 20:00 -7,7 C 72 % 1028,5 hPa 0,0 l/m 0,0 km/h S-SO -11,8 C -7,7 C 0,0 km/h
18.01.2017 21:00 -7,5 C 75 % 1028,4 hPa 0,0 l/m 0,0 km/h SO -11,1 C -7,5 C 0,0 km/h
18.01.2017 22:00 -8,4 C 78 % 1028,2 hPa 0,0 l/m 0,0 km/h SO -11,5 C -8,4 C 0,0 km/h
18.01.2017 23:00 -10,1 C 78 % 1028,1 hPa 0,0 l/m 0,0 km/h SO -13,2 C -10,1 C 0,0 km/h
19.01.2017 00:00 -10,6 C 80 % 1028,1 hPa 0,0 l/m 0,0 km/h SO -13,4 C -10,6 C 0,0 km/h
19.01.2017 01:00 -10,1 C 82 % 1027,9 hPa 0,0 l/m 0,0 km/h SO -12,6 C -10,1 C 0,0 km/h
19.01.2017 02:00 -10,5 C 82 % 1028,3 hPa 0,0 l/m 0,0 km/h SO -13,0 C -10,5 C 0,0 km/h
19.01.2017 03:00 -10,9 C 82 % 1028,4 hPa 0,0 l/m 0,0 km/h SO -13,4 C -10,9 C 0,0 km/h
19.01.2017 04:00 -12,2 C 83 % 1028,7 hPa 0,0 l/m 0,0 km/h O-SO -14,5 C -12,2 C 0,0 km/h
19.01.2017 05:00 -11,5 C 84 % 1028,8 hPa 0,0 l/m 0,0 km/h O-SO -13,6 C -11,5 C 0,0 km/h
19.01.2017 06:00 -12,1 C 84 % 1028,8 hPa 0,0 l/m 0,0 km/h O-SO -14,2 C -12,1 C 0,0 km/h
19.01.2017 07:00 -12,2 C 84 % 1029,0 hPa 0,0 l/m 0,0 km/h O-NO -14,3 C -12,2 C 0,0 km/h
19.01.2017 08:00 -12,1 C 84 % 1029,3 hPa 0,0 l/m 0,0 km/h O-NO -14,2 C -12,1 C 0,0 km/h
19.01.2017 09:00 -10,2 C 85 % 1029,8 hPa 0,0 l/m 0,0 km/h O-NO -12,2 C -10,2 C 0,0 km/h
19.01.2017 10:00 -5,0 C 83 % 1030,2 hPa 0,0 l/m 0,0 km/h O -7,4 C -5,0 C 0,0 km/h
19.01.2017 11:00 1,0 C 69 % 1030,1 hPa 0,0 l/m 0,0 km/h O-NO -4,0 C 1,0 C 0,0 km/h
19.01.2017 12:00 1,9 C 61 % 1029,8 hPa 0,0 l/m 0,0 km/h O-NO -4,8 C 1,9 C 0,0 km/h
19.01.2017 13:00 1,8 C 60 % 1029,4 hPa 0,0 l/m 0,0 km/h O-NO -5,1 C 1,8 C 0,0 km/h
19.01.2017 14:00 2,9 C 56 % 1028,9 hPa 0,0 l/m 0,0 km/h SO -5,0 C 2,9 C 0,0 km/h
19.01.2017 15:00 3,9 C 54 % 1028,7 hPa 0,0 l/m 0,0 km/h SO -4,5 C 3,9 C 0,0 km/h
19.01.2017 16:00 2,4 C 54 % 1028,6 hPa 0,0 l/m 0,0 km/h SO -5,9 C 2,4 C 0,0 km/h
19.01.2017 17:00 -4,4 C 67 % 1028,6 hPa 0,0 l/m 0,0 km/h SO -9,6 C -4,4 C 0,0 km/h
19.01.2017 18:00 -6,8 C 74 % 1029,1 hPa 0,0 l/m 0,0 km/h SO -10,6 C -6,8 C 0,0 km/h
19.01.2017 19:00 -8,2 C 77 % 1029,0 hPa 0,0 l/m 0,0 km/h SO -11,5 C -8,2 C 0,0 km/h
19.01.2017 20:00 -9,1 C 80 % 1029,2 hPa 0,0 l/m 0,0 km/h SO -11,9 C -9,1 C 0,0 km/h
19.01.2017 21:00 -9,7 C 81 % 1029,1 hPa 0,0 l/m 0,0 km/h SO -12,3 C -9,7 C 0,0 km/h
19.01.2017 22:00 -10,2 C 83 % 1029,5 hPa 0,0 l/m 0,0 km/h SO -12,5 C -10,2 C 0,0 km/h
19.01.2017 23:00 -10,2 C 84 % 1029,2 hPa 0,0 l/m 0,0 km/h SO -12,4 C -10,2 C 0,0 km/h
20.01.2017 00:00 -10,8 C 84 % 1029,0 hPa 0,0 l/m 0,0 km/h SO -13,0 C -10,8 C 0,0 km/h
20.01.2017 01:00 -11,2 C 85 % 1028,7 hPa 0,0 l/m 0,0 km/h SO -13,2 C -11,2 C 0,0 km/h
20.01.2017 02:00 -11,2 C 85 % 1028,5 hPa 0,0 l/m 0,0 km/h SO -13,2 C -11,2 C 0,0 km/h
20.01.2017 03:00 -11,6 C 85 % 1028,9 hPa 0,0 l/m 0,0 km/h SO -13,6 C -11,6 C 0,0 km/h
20.01.2017 04:00 -11,5 C 86 % 1028,6 hPa 0,0 l/m 0,0 km/h SO -13,4 C -11,5 C 0,0 km/h
20.01.2017 05:00 -11,6 C 86 % 1028,5 hPa 0,0 l/m 0,0 km/h SO -13,5 C -11,6 C 0,0 km/h
20.01.2017 06:00 -12,1 C 86 % 1028,8 hPa 0,0 l/m 0,0 km/h SO -13,9 C -12,1 C 0,0 km/h
20.01.2017 07:00 -11,6 C 86 % 1028,8 hPa 0,0 l/m 0,0 km/h SO -13,5 C -11,6 C 0,0 km/h
20.01.2017 08:00 -11,5 C 86 % 1028,9 hPa 0,0 l/m 0,0 km/h O -13,4 C -11,5 C 0,0 km/h
20.01.2017 09:00 -9,4 C 87 % 1028,9 hPa 0,0 l/m 0,0 km/h O-SO -11,2 C -9,4 C 0,0 km/h
20.01.2017 10:00 -4,7 C 85 % 1029,0 hPa 0,0 l/m 0,0 km/h O-SO -6,8 C -4,7 C 0,0 km/h
20.01.2017 11:00 -0,7 C 73 % 1029,2 hPa 0,0 l/m 0,0 km/h W-NW -4,9 C -0,7 C 0,0 km/h
20.01.2017 12:00 2,7 C 65 % 1028,7 hPa 0,0 l/m 0,0 km/h W-NW -3,2 C 2,7 C 0,0 km/h
20.01.2017 13:00 3,3 C 58 % 1028,1 hPa 0,0 l/m 0,0 km/h W-NW -4,2 C 3,3 C 0,0 km/h
20.01.2017 14:00 2,4 C 58 % 1027,5 hPa 0,0 l/m 0,0 km/h W-NW -5,0 C 2,4 C 0,0 km/h
20.01.2017 15:00 4,4 C 55 % 1027,4 hPa 0,0 l/m 0,0 km/h W-NW -3,8 C 4,4 C 0,0 km/h
20.01.2017 16:00 3,6 C 53 % 1027,4 hPa 0,0 l/m 0,0 km/h W-NW -5,1 C 3,6 C 0,0 km/h
20.01.2017 17:00 -3,1 C 64 % 1027,6 hPa 0,0 l/m 0,0 km/h W-NW -8,9 C -3,1 C 0,0 km/h
20.01.2017 18:00 -6,6 C 73 % 1027,7 hPa 0,0 l/m 0,0 km/h W-NW -10,6 C -6,6 C 0,0 km/h
20.01.2017 19:00 -8,2 C 77 % 1027,9 hPa 0,0 l/m 0,0 km/h W-NW -11,5 C -8,2 C 0,0 km/h
20.01.2017 20:00 -9,0 C 80 % 1027,9 hPa 0,0 l/m 0,0 km/h W-NW -11,8 C -9,0 C 0,0 km/h
20.01.2017 21:00 -9,3 C 81 % 1028,0 hPa 0,0 l/m 0,0 km/h W-NW -11,9 C -9,3 C 0,0 km/h
20.01.2017 22:00 -9,7 C 83 % 1027,6 hPa 0,0 l/m 0,0 km/h S-SO -12,0 C -9,7 C 0,0 km/h
20.01.2017 23:00 -10,1 C 83 % 1027,9 hPa 0,0 l/m 0,0 km/h O-NO -12,4 C -10,1 C 0,0 km/h
21.01.2017 00:00 -10,2 C 84 % 1027,6 hPa 0,0 l/m 0,0 km/h O-NO -12,4 C -10,2 C 0,0 km/h
21.01.2017 01:00 -11,3 C 85 % 1027,3 hPa 0,0 l/m 0,0 km/h O-NO -13,3 C -11,3 C 0,0 km/h
21.01.2017 02:00 -11,4 C 85 % 1027,1 hPa 0,0 l/m 0,0 km/h NO -13,4 C -11,4 C 0,0 km/h
21.01.2017 03:00 -11,1 C 85 % 1026,9 hPa 0,0 l/m 0,0 km/h NO -13,1 C -11,1 C 0,0 km/h
21.01.2017 04:00 -12,1 C 85 % 1026,9 hPa 0,0 l/m 0,0 km/h NO -14,1 C -12,1 C 0,0 km/h
21.01.2017 05:00 -11,9 C 85 % 1026,6 hPa 0,0 l/m 0,0 km/h NO -13,9 C -11,9 C 0,0 km/h
21.01.2017 06:00 -11,9 C 86 % 1026,4 hPa 0,0 l/m 0,0 km/h NO -13,8 C -11,9 C 0,0 km/h
21.01.2017 07:00 -12,2 C 86 % 1026,4 hPa 0,0 l/m 0,0 km/h NO -14,0 C -12,2 C 0,0 km/h
21.01.2017 08:00 -11,7 C 86 % 1026,4 hPa 0,0 l/m 0,0 km/h NO -13,6 C -11,7 C 0,0 km/h
21.01.2017 09:00 -8,2 C 87 % 1026,7 hPa 0,0 l/m 0,0 km/h NO -10,0 C -8,2 C 0,0 km/h
21.01.2017 10:00 -1,8 C 81 % 1026,8 hPa 0,0 l/m 0,0 km/h O-NO -4,6 C -1,8 C 0,0 km/h
21.01.2017 11:00 1,8 C 69 % 1026,7 hPa 0,0 l/m 0,0 km/h W -3,3 C 1,8 C 0,0 km/h
21.01.2017 12:00 2,8 C 63 % 1026,2 hPa 0,0 l/m 0,0 km/h W -3,5 C 2,8 C 0,0 km/h
21.01.2017 13:00 4,2 C 58 % 1025,7 hPa 0,0 l/m 0,0 km/h W-NW -3,3 C 4,2 C 0,0 km/h
21.01.2017 14:00 4,2 C 55 % 1024,8 hPa 0,0 l/m 0,0 km/h W-NW -4,0 C 4,2 C 0,0 km/h
21.01.2017 15:00 6,5 C 51 % 1024,4 hPa 0,0 l/m 0,0 km/h W-NW -2,9 C 6,5 C 0,0 km/h
21.01.2017 16:00 6,6 C 50 % 1024,2 hPa 0,0 l/m 0,0 km/h W-NW -3,1 C 6,6 C 0,0 km/h
21.01.2017 17:00 -1,3 C 60 % 1024,0 hPa 0,0 l/m 0,0 km/h W-NW -8,0 C -1,3 C 0,0 km/h
21.01.2017 18:00 -5,5 C 71 % 1024,2 hPa 0,0 l/m 0,0 km/h W-NW -9,9 C -5,5 C 0,0 km/h
21.01.2017 19:00 -7,1 C 77 % 1024,4 hPa 0,0 l/m 0,0 km/h W-NW -10,4 C -7,1 C 0,0 km/h
21.01.2017 20:00 -8,1 C 79 % 1024,6 hPa 0,0 l/m 0,0 km/h W-NW -11,1 C -8,1 C 0,0 km/h
21.01.2017 21:00 -8,7 C 81 % 1024,7 hPa 0,0 l/m 0,0 km/h W-NW -11,4 C -8,7 C 0,0 km/h
21.01.2017 22:00 -9,1 C 83 % 1024,8 hPa 0,0 l/m 0,0 km/h W-NW -11,4 C -9,1 C 0,0 km/h
21.01.2017 23:00 -9,7 C 84 % 1024,9 hPa 0,0 l/m 0,0 km/h W-NW -11,9 C -9,7 C 0,0 km/h
22.01.2017 00:00 -10,2 C 84 % 1024,8 hPa 0,0 l/m 0,0 km/h W-NW -12,4 C -10,2 C 0,0 km/h
22.01.2017 01:00 -10,5 C 84 % 1024,5 hPa 0,0 l/m 0,0 km/h W-NW -12,7 C -10,5 C 0,0 km/h
22.01.2017 02:00 -11,1 C 85 % 1024,1 hPa 0,0 l/m 0,0 km/h W-NW -13,1 C -11,1 C 0,0 km/h
22.01.2017 03:00 -11,6 C 85 % 1024,0 hPa 0,0 l/m 0,0 km/h W-NW -13,6 C -11,6 C 0,0 km/h
22.01.2017 04:00 -11,5 C 86 % 1023,5 hPa 0,0 l/m 0,0 km/h W-NW -13,4 C -11,5 C 0,0 km/h
22.01.2017 05:00 -11,7 C 85 % 1023,3 hPa 0,0 l/m 0,0 km/h W-NW -13,7 C -11,7 C 0,0 km/h
22.01.2017 06:00 -11,9 C 86 % 1023,1 hPa 0,0 l/m 0,0 km/h W-NW -13,8 C -11,9 C 0,0 km/h
22.01.2017 07:00 -11,8 C 86 % 1022,7 hPa 0,0 l/m 0,0 km/h W-NW -13,7 C -11,8 C 0,0 km/h
22.01.2017 08:00 -12,1 C 86 % 1023,1 hPa 0,0 l/m 0,0 km/h W-NW -13,9 C -12,1 C 0,0 km/h
22.01.2017 09:00 -9,7 C 86 % 1023,2 hPa 0,0 l/m 0,0 km/h N-NO -11,6 C -9,7 C 0,0 km/h
22.01.2017 10:00 -7,0 C 86 % 1023,4 hPa 0,0 l/m 0,0 km/h N-NO -8,9 C -7,0 C 0,0 km/h
22.01.2017 11:00 -4,9 C 86 % 1023,0 hPa 0,0 l/m 0,0 km/h N -6,9 C -4,9 C 0,0 km/h
22.01.2017 12:00 -4,1 C 86 % 1022,6 hPa 0,0 l/m 0,0 km/h W-NW -6,1 C -4,1 C 0,0 km/h
22.01.2017 13:00 -3,4 C 84 % 1021,8 hPa 0,0 l/m 0,0 km/h W-NW -5,7 C -3,4 C 0,0 km/h
22.01.2017 14:00 -2,5 C 82 % 1021,1 hPa 0,0 l/m 0,0 km/h W-SW -5,1 C -2,5 C 0,0 km/h
22.01.2017 15:00 -2,7 C 81 % 1021,2 hPa 0,0 l/m 0,0 km/h S-SO -5,5 C -2,7 C 0,0 km/h
22.01.2017 16:00 -3,9 C 83 % 1021,3 hPa 0,0 l/m 0,0 km/h SW -6,4 C -3,9 C 0,0 km/h
22.01.2017 17:00 -5,1 C 85 % 1021,2 hPa 0,0 l/m 0,0 km/h S-SO -7,2 C -5,1 C 0,0 km/h
22.01.2017 18:00 -5,4 C 86 % 1021,5 hPa 0,0 l/m 0,0 km/h S-SO -7,4 C -5,4 C 0,0 km/h
22.01.2017 19:00 -5,5 C 86 % 1022,0 hPa 0,0 l/m 0,0 km/h SO -7,5 C -5,5 C 0,0 km/h
22.01.2017 20:00 -5,8 C 86 % 1022,0 hPa 0,0 l/m 0,0 km/h SO -7,8 C -5,8 C 0,0 km/h
22.01.2017 21:00 -6,2 C 87 % 1022,4 hPa 0,0 l/m 0,0 km/h O-SO -8,0 C -6,2 C 0,0 km/h
22.01.2017 22:00 -6,4 C 87 % 1022,5 hPa 0,0 l/m 0,0 km/h O-SO -8,2 C -6,4 C 0,0 km/h
22.01.2017 23:00 -6,5 C 87 % 1022,5 hPa 0,0 l/m 3,2 km/h O-SO -8,3 C -6,5 C 1,8 km/h
Min-Datum _ 19.01.17 18.01.17 16.01.17 - 16.01.17 - 19.01.17 19.01.17 16.01.17
_ Min-Zeit 04:10 15:10 02:10 - 00:10 - 04:10 04:10 00:10
Minimum _ -12,2 C 46 % 1018,9 hPa - 0,0 km/h - -14,5 C -12,2 C 0,0 km/h
Max-Datum _ 16.01.17 16.01.17 19.01.17 16.01.17 16.01.17 - 16.01.17 16.01.17 16.01.17
_ Max-Zeit 12:10 00:10 10:10 13:10 16:10 - 12:10 12:10 16:10
Maximum _ 8,9 C 87 % 1030,2 hPa 1,0 l/m 20,1 km/h
N-NO
- 3,7 C 8,9 C 11,2 km/h
N-NO
Durchschnitt _ -4,8 C 77 % 1025,9 hPa #2,6 l/m 0,4 km/h W-NW -8,5 C -4,9 C 0,2 km/h
www.sexauwetter.de